Wind From: 11-12-2017 06:00 Until: 12-12-2017 06:00 warning for: Wind Level: Orange info button

Power and phone distribution networks may be disrupted for relatively long periods., Roofs and chimneys can be damaged. , Tree branches may break. , Vehicles can be deported. , Traffic may be disrupted, particularly on secondary roads in forest areas. Limit your trips. , Limit your speed in highway driving, especially if you drive a vehicle or hitch sensitive to wind. , Do not go for walks in forests or along the coast., In town, be vigilant against possible falling objects., Do not work on roofs and do not touch any electrical line fallen on the ground., Store or secure sensitive objects to wind or likely to be damaged., Always install power generators outside buildings. 


Meteo18 Weather Cam more information Meteo18 Weather Cam


Thunder radar more information blitzortung!


Rain radar more information rain snow radar


Visit our other weather sites:

Template documentation
and downloads

And another site



Weather Underground History page Text

Daily Summary for August 14, 2017 Units:  Both    English   Metric
« Previous Day
Next Day »
Daily Weekly Monthly Yearly Custom
  High: Low: Average:
Temperature: 85.8 °F /  29.9 °C 54.3 °F /  12.4 °C 69.6 °F /  20.9 °C
Dew Point: 64.4 °F /  18.0 °C 52.7 °F /  11.5 °C 58.6 °F /  14.8 °C
Humidity: 95 % 41 % 71 %
Wind Speed: 7 mph /  11.3 km/h - 1.2 mph /  1.9 km/h
Wind Gust: 11 mph /  17.7 km/h - -
Wind:- - SSE
Pressure: 30.2 in /  1021.6 hPa 30 in /  1015.5 hPa -
Precipitation: 0 in /  0.0 mm    
Historical Graphs
 
 
Tabular Data for August 14, 2017
Time Temperature Dew Point Pressure Wind Wind Speed Wind Gust Humidity Rainfall Rate (Hourly)
00:02 59.9 °F /  15.5 °C 55.8 °F /  13.2 °C 30.2 in /  1021.6 hPa Calm   1 mph /  1.6 km/h 86 % 0 in /  0.0 mm
00:07 59.7 °F /  15.4 °C 55.6 °F /  13.1 °C 30.2 in /  1021.2 hPa Calm   1 mph /  1.6 km/h 86 % 0 in /  0.0 mm
00:12 59.5 °F /  15.3 °C 55.4 °F /  13.0 °C 30.2 in /  1021.2 hPa Calm   1 mph /  1.6 km/h 86 % 0 in /  0.0 mm
00:17 59.4 °F /  15.2 °C 55.2 °F /  12.9 °C 30.2 in /  1021.2 hPa Calm   1 mph /  1.6 km/h 86 % 0 in /  0.0 mm
00:22 59.4 °F /  15.2 °C 55.2 °F /  12.9 °C 30.2 in /  1021.2 hPa Calm   1 mph /  1.6 km/h 86 % 0 in /  0.0 mm
00:32 59.2 °F /  15.1 °C 55.4 °F /  13.0 °C 30.2 in /  1021.2 hPa Calm   1 mph /  1.6 km/h 87 % 0 in /  0.0 mm
00:42 59 °F /  15.0 °C 55.2 °F /  12.9 °C 30.2 in /  1021.2 hPa Calm   1 mph /  1.6 km/h 87 % 0 in /  0.0 mm
00:47 58.8 °F /  14.9 °C 55 °F /  12.8 °C 30.2 in /  1021.2 hPa Calm   1 mph /  1.6 km/h 87 % 0 in /  0.0 mm
00:57 58.5 °F /  14.7 °C 54.9 °F /  12.7 °C 30.2 in /  1021.2 hPa Calm   2 mph /  3.2 km/h 88 % 0 in /  0.0 mm
01:02 58.6 °F /  14.8 °C 55 °F /  12.8 °C 30.2 in /  1020.9 hPa Calm   2 mph /  3.2 km/h 88 % 0 in /  0.0 mm
01:07 58.6 °F /  14.8 °C 55 °F /  12.8 °C 30.2 in /  1020.9 hPa Calm   2 mph /  3.2 km/h 88 % 0 in /  0.0 mm
01:12 58.5 °F /  14.7 °C 54.9 °F /  12.7 °C 30.2 in /  1020.9 hPa Calm   2 mph /  3.2 km/h 88 % 0 in /  0.0 mm
01:17 58.3 °F /  14.6 °C 54.7 °F /  12.6 °C 30.2 in /  1020.9 hPa Calm   2 mph /  3.2 km/h 88 % 0 in /  0.0 mm
01:22 58.1 °F /  14.5 °C 54.5 °F /  12.5 °C 30.2 in /  1021.2 hPa Calm   2 mph /  3.2 km/h 88 % 0 in /  0.0 mm
01:32 57.9 °F /  14.4 °C 54.7 °F /  12.6 °C 30.2 in /  1020.9 hPa Calm   2 mph /  3.2 km/h 89 % 0 in /  0.0 mm
01:37 57.9 °F /  14.4 °C 54.7 °F /  12.6 °C 30.2 in /  1020.9 hPa Calm   2 mph /  3.2 km/h 89 % 0 in /  0.0 mm
01:42 57.9 °F /  14.4 °C 54.7 °F /  12.6 °C 30.2 in /  1020.9 hPa Calm   2 mph /  3.2 km/h 89 % 0 in /  0.0 mm
01:47 57.9 °F /  14.4 °C 54.7 °F /  12.6 °C 30.2 in /  1020.9 hPa Calm   2 mph /  3.2 km/h 89 % 0 in /  0.0 mm
01:52 57.9 °F /  14.4 °C 54.7 °F /  12.6 °C 30.2 in /  1020.9 hPa Calm     89 % 0 in /  0.0 mm
01:57 57.9 °F /  14.4 °C 54.3 °F /  12.4 °C 30.2 in /  1020.9 hPa NNE 1 mph /  1.6 km/h 1 mph /  1.6 km/h 88 % 0 in /  0.0 mm
02:02 57.7 °F /  14.3 °C 54.1 °F /  12.3 °C 30.1 in /  1020.5 hPa Calm   2 mph /  3.2 km/h 88 % 0 in /  0.0 mm
02:07 57.6 °F /  14.2 °C 54.3 °F /  12.4 °C 30.1 in /  1020.5 hPa North 1 mph /  1.6 km/h 2 mph /  3.2 km/h 89 % 0 in /  0.0 mm
02:12 57.6 °F /  14.2 °C 54.3 °F /  12.4 °C 30.1 in /  1020.5 hPa Calm   2 mph /  3.2 km/h 89 % 0 in /  0.0 mm
02:17 57.6 °F /  14.2 °C 54.3 °F /  12.4 °C 30.1 in /  1020.5 hPa Calm   1 mph /  1.6 km/h 89 % 0 in /  0.0 mm
02:22 57.6 °F /  14.2 °C 54.3 °F /  12.4 °C 30.1 in /  1020.5 hPa Calm   1 mph /  1.6 km/h 89 % 0 in /  0.0 mm
02:27 57.6 °F /  14.2 °C 54.3 °F /  12.4 °C 30.1 in /  1020.5 hPa Calm   1 mph /  1.6 km/h 89 % 0 in /  0.0 mm
02:32 57.4 °F /  14.1 °C 54.1 °F /  12.3 °C 30.1 in /  1020.5 hPa Calm   1 mph /  1.6 km/h 89 % 0 in /  0.0 mm
02:37 57.4 °F /  14.1 °C 54.1 °F /  12.3 °C 30.1 in /  1020.5 hPa Calm   1 mph /  1.6 km/h 89 % 0 in /  0.0 mm
02:42 57.4 °F /  14.1 °C 54.1 °F /  12.3 °C 30.1 in /  1020.5 hPa Calm   1 mph /  1.6 km/h 89 % 0 in /  0.0 mm
02:47 57.4 °F /  14.1 °C 54.1 °F /  12.3 °C 30.1 in /  1020.5 hPa Calm   1 mph /  1.6 km/h 89 % 0 in /  0.0 mm
02:57 57 °F /  13.9 °C 54.1 °F /  12.3 °C 30.1 in /  1020.5 hPa Calm   1 mph /  1.6 km/h 90 % 0 in /  0.0 mm
03:02 57 °F /  13.9 °C 54.1 °F /  12.3 °C 30.1 in /  1020.2 hPa Calm   1 mph /  1.6 km/h 90 % 0 in /  0.0 mm
03:07 57 °F /  13.9 °C 54.1 °F /  12.3 °C 30.1 in /  1020.2 hPa Calm   1 mph /  1.6 km/h 90 % 0 in /  0.0 mm
03:12 56.8 °F /  13.8 °C 54 °F /  12.2 °C 30.1 in /  1020.2 hPa Calm   1 mph /  1.6 km/h 90 % 0 in /  0.0 mm
03:17 56.8 °F /  13.8 °C 54 °F /  12.2 °C 30.1 in /  1020.2 hPa Calm     90 % 0 in /  0.0 mm
03:22 56.8 °F /  13.8 °C 54 °F /  12.2 °C 30.1 in /  1020.2 hPa Calm     90 % 0 in /  0.0 mm
03:27 56.8 °F /  13.8 °C 54 °F /  12.2 °C 30.1 in /  1020.2 hPa Calm     90 % 0 in /  0.0 mm
03:32 57 °F /  13.9 °C 54.1 °F /  12.3 °C 30.1 in /  1020.2 hPa Calm     90 % 0 in /  0.0 mm
03:37 57 °F /  13.9 °C 54.1 °F /  12.3 °C 30.1 in /  1020.2 hPa Calm     90 % 0 in /  0.0 mm
03:42 57 °F /  13.9 °C 54.1 °F /  12.3 °C 30.1 in /  1020.2 hPa Calm     90 % 0 in /  0.0 mm
03:52 57.2 °F /  14.0 °C 54.3 °F /  12.4 °C 30.1 in /  1020.2 hPa Calm     90 % 0 in /  0.0 mm
03:57 57.2 °F /  14.0 °C 54.3 °F /  12.4 °C 30.1 in /  1020.2 hPa Calm     90 % 0 in /  0.0 mm
04:02 57.2 °F /  14.0 °C 54.3 °F /  12.4 °C 30.1 in /  1020.2 hPa Calm     90 % 0 in /  0.0 mm
04:07 56.8 °F /  13.8 °C 54 °F /  12.2 °C 30.1 in /  1020.2 hPa Calm     90 % 0 in /  0.0 mm
04:12 56.8 °F /  13.8 °C 54.3 °F /  12.4 °C 30.1 in /  1020.2 hPa Calm     91 % 0 in /  0.0 mm
04:17 56.8 °F /  13.8 °C 54.3 °F /  12.4 °C 30.1 in /  1020.2 hPa Calm     91 % 0 in /  0.0 mm
04:22 56.7 °F /  13.7 °C 54.1 °F /  12.3 °C 30.1 in /  1020.2 hPa Calm     91 % 0 in /  0.0 mm
04:27 56.5 °F /  13.6 °C 54 °F /  12.2 °C 30.1 in /  1019.9 hPa Calm     91 % 0 in /  0.0 mm
04:32 56.5 °F /  13.6 °C 54 °F /  12.2 °C 30.1 in /  1020.2 hPa Calm     91 % 0 in /  0.0 mm
04:37 56.5 °F /  13.6 °C 54.1 °F /  12.3 °C 30.1 in /  1019.9 hPa Calm     92 % 0 in /  0.0 mm
04:42 56.8 °F /  13.8 °C 54.5 °F /  12.5 °C 30.1 in /  1019.9 hPa Calm     92 % 0 in /  0.0 mm
04:47 56.8 °F /  13.8 °C 54.3 °F /  12.4 °C 30.1 in /  1019.9 hPa Calm     91 % 0 in /  0.0 mm
04:52 56.7 °F /  13.7 °C 54.1 °F /  12.3 °C 30.1 in /  1019.9 hPa Calm     91 % 0 in /  0.0 mm
04:57 56.7 °F /  13.7 °C 54.3 °F /  12.4 °C 30.1 in /  1019.9 hPa Calm     92 % 0 in /  0.0 mm
05:02 56.5 °F /  13.6 °C 54.1 °F /  12.3 °C 30.1 in /  1019.9 hPa Calm     92 % 0 in /  0.0 mm
05:12 55.6 °F /  13.1 °C 53.1 °F /  11.7 °C 30.1 in /  1019.9 hPa Calm     91 % 0 in /  0.0 mm
05:17 55.2 °F /  12.9 °C 52.9 °F /  11.6 °C 30.1 in /  1019.9 hPa Calm     92 % 0 in /  0.0 mm
05:22 55.2 °F /  12.9 °C 53.2 °F /  11.8 °C 30.1 in /  1019.9 hPa Calm     93 % 0 in /  0.0 mm
05:27 55.4 °F /  13.0 °C 53.4 °F /  11.9 °C 30.1 in /  1019.9 hPa Calm     93 % 0 in /  0.0 mm
05:32 55.2 °F /  12.9 °C 53.6 °F /  12.0 °C 30.1 in /  1019.9 hPa Calm     94 % 0 in /  0.0 mm
05:42 55.4 °F /  13.0 °C 53.8 °F /  12.1 °C 30.1 in /  1019.9 hPa Calm     94 % 0 in /  0.0 mm
05:47 55.2 °F /  12.9 °C 53.2 °F /  11.8 °C 30.1 in /  1019.9 hPa Calm     93 % 0 in /  0.0 mm
05:52 55.2 °F /  12.9 °C 53.6 °F /  12.0 °C 30.1 in /  1019.9 hPa Calm     94 % 0 in /  0.0 mm
05:57 55 °F /  12.8 °C 53.4 °F /  11.9 °C 30.1 in /  1019.9 hPa Calm     94 % 0 in /  0.0 mm
06:02 54.9 °F /  12.7 °C 53.2 °F /  11.8 °C 30.1 in /  1019.9 hPa Calm     94 % 0 in /  0.0 mm
06:12 54.5 °F /  12.5 °C 52.9 °F /  11.6 °C 30.1 in /  1019.9 hPa Calm     94 % 0 in /  0.0 mm
06:17 54.3 °F /  12.4 °C 52.7 °F /  11.5 °C 30.1 in /  1019.9 hPa Calm     94 % 0 in /  0.0 mm
06:22 54.5 °F /  12.5 °C 53.1 °F /  11.7 °C 30.1 in /  1019.9 hPa Calm     95 % 0 in /  0.0 mm
06:32 54.7 °F /  12.6 °C 53.2 °F /  11.8 °C 30.1 in /  1019.9 hPa North 1 mph /  1.6 km/h 2 mph /  3.2 km/h 95 % 0 in /  0.0 mm
06:37 54.3 °F /  12.4 °C 52.7 °F /  11.5 °C 30.1 in /  1019.9 hPa North 2 mph /  3.2 km/h 2 mph /  3.2 km/h 94 % 0 in /  0.0 mm
06:42 54.3 °F /  12.4 °C 52.9 °F /  11.6 °C 30.1 in /  1019.9 hPa North 2 mph /  3.2 km/h 2 mph /  3.2 km/h 95 % 0 in /  0.0 mm
06:47 54.5 °F /  12.5 °C 53.1 °F /  11.7 °C 30.1 in /  1019.9 hPa North 1 mph /  1.6 km/h 2 mph /  3.2 km/h 95 % 0 in /  0.0 mm
06:52 54.5 °F /  12.5 °C 53.1 °F /  11.7 °C 30.1 in /  1019.5 hPa North 1 mph /  1.6 km/h 3 mph /  4.8 km/h 95 % 0 in /  0.0 mm
06:57 54.3 °F /  12.4 °C 52.7 °F /  11.5 °C 30.1 in /  1019.5 hPa NNE 1 mph /  1.6 km/h 3 mph /  4.8 km/h 94 % 0 in /  0.0 mm
07:02 54.3 °F /  12.4 °C 52.9 °F /  11.6 °C 30.1 in /  1019.5 hPa North 2 mph /  3.2 km/h 2 mph /  3.2 km/h 95 % 0 in /  0.0 mm
07:07 54.7 °F /  12.6 °C 53.1 °F /  11.7 °C 30.1 in /  1019.5 hPa North 1 mph /  1.6 km/h 2 mph /  3.2 km/h 94 % 0 in /  0.0 mm
07:12 54.9 °F /  12.7 °C 53.2 °F /  11.8 °C 30.1 in /  1019.5 hPa Calm   2 mph /  3.2 km/h 94 % 0 in /  0.0 mm
07:17 55.2 °F /  12.9 °C 53.6 °F /  12.0 °C 30.1 in /  1019.5 hPa Calm   2 mph /  3.2 km/h 94 % 0 in /  0.0 mm
07:22 55.8 °F /  13.2 °C 54.1 °F /  12.3 °C 30.1 in /  1019.5 hPa Calm   2 mph /  3.2 km/h 94 % 0 in /  0.0 mm
07:27 55.9 °F /  13.3 °C 54.3 °F /  12.4 °C 30.1 in /  1019.5 hPa Calm     94 % 0 in /  0.0 mm
07:32 56.1 °F /  13.4 °C 54.1 °F /  12.3 °C 30.1 in /  1019.9 hPa Calm     93 % 0 in /  0.0 mm
07:37 56.5 °F /  13.6 °C 54.5 °F /  12.5 °C 30.1 in /  1019.5 hPa Calm     93 % 0 in /  0.0 mm
07:42 56.8 °F /  13.8 °C 54.9 °F /  12.7 °C 30.1 in /  1019.5 hPa Calm     93 % 0 in /  0.0 mm
07:47 57.4 °F /  14.1 °C 55.4 °F /  13.0 °C 30.1 in /  1019.5 hPa North 1 mph /  1.6 km/h   93 % 0 in /  0.0 mm
07:57 57.6 °F /  14.2 °C 55.2 °F /  12.9 °C 30.1 in /  1019.5 hPa NNE 2 mph /  3.2 km/h 2 mph /  3.2 km/h 92 % 0 in /  0.0 mm
08:02 57.9 °F /  14.4 °C 55.6 °F /  13.1 °C 30.1 in /  1019.5 hPa Calm   2 mph /  3.2 km/h 92 % 0 in /  0.0 mm
08:12 58.8 °F /  14.9 °C 56.1 °F /  13.4 °C 30.1 in /  1019.5 hPa North 1 mph /  1.6 km/h 3 mph /  4.8 km/h 91 % 0 in /  0.0 mm
08:17 59.2 °F /  15.1 °C 56.5 °F /  13.6 °C 30.1 in /  1019.9 hPa Calm   2 mph /  3.2 km/h 91 % 0 in /  0.0 mm
08:22 59.5 °F /  15.3 °C 56.7 °F /  13.7 °C 30.1 in /  1019.9 hPa North 1 mph /  1.6 km/h 2 mph /  3.2 km/h 90 % 0 in /  0.0 mm
08:32 59.9 °F /  15.5 °C 56.7 °F /  13.7 °C 30.1 in /  1019.5 hPa Calm   3 mph /  4.8 km/h 89 % 0 in /  0.0 mm
08:37 60.3 °F /  15.7 °C 57 °F /  13.9 °C 30.1 in /  1019.5 hPa North 1 mph /  1.6 km/h 3 mph /  4.8 km/h 89 % 0 in /  0.0 mm
08:42 60.6 °F /  15.9 °C 57.4 °F /  14.1 °C 30.1 in /  1019.5 hPa North 1 mph /  1.6 km/h 3 mph /  4.8 km/h 89 % 0 in /  0.0 mm
08:47 61 °F /  16.1 °C 57.7 °F /  14.3 °C 30.1 in /  1019.9 hPa NNE 1 mph /  1.6 km/h 2 mph /  3.2 km/h 89 % 0 in /  0.0 mm
08:52 61.2 °F /  16.2 °C 57.9 °F /  14.4 °C 30.1 in /  1019.9 hPa NNE 1 mph /  1.6 km/h 3 mph /  4.8 km/h 89 % 0 in /  0.0 mm
09:02 62.1 °F /  16.7 °C 58.5 °F /  14.7 °C 30.1 in /  1019.5 hPa NNE 1 mph /  1.6 km/h 3 mph /  4.8 km/h 88 % 0 in /  0.0 mm
09:12 63.1 °F /  17.3 °C 58.8 °F /  14.9 °C 30.1 in /  1019.9 hPa Calm   3 mph /  4.8 km/h 86 % 0 in /  0.0 mm
09:17 63.9 °F /  17.7 °C 59.2 °F /  15.1 °C 30.1 in /  1019.9 hPa NNE 1 mph /  1.6 km/h 2 mph /  3.2 km/h 85 % 0 in /  0.0 mm
09:22 64.2 °F /  17.9 °C 59.5 °F /  15.3 °C 30.1 in /  1019.5 hPa Calm   2 mph /  3.2 km/h 85 % 0 in /  0.0 mm
09:32 65.7 °F /  18.7 °C 60.1 °F /  15.6 °C 30.1 in /  1019.5 hPa ENE 2 mph /  3.2 km/h 2 mph /  3.2 km/h 82 % 0 in /  0.0 mm
09:37 65.7 °F /  18.7 °C 60.4 °F /  15.8 °C 30.1 in /  1019.5 hPa Calm   3 mph /  4.8 km/h 83 % 0 in /  0.0 mm
09:42 66 °F /  18.9 °C 60.4 °F /  15.8 °C 30.1 in /  1019.5 hPa Calm   3 mph /  4.8 km/h 82 % 0 in /  0.0 mm
09:47 66.2 °F /  19.0 °C 60.3 °F /  15.7 °C 30.1 in /  1019.5 hPa ENE 2 mph /  3.2 km/h 4 mph /  6.4 km/h 81 % 0 in /  0.0 mm
09:52 66.6 °F /  19.2 °C 60.6 °F /  15.9 °C 30.1 in /  1019.5 hPa ENE 2 mph /  3.2 km/h 4 mph /  6.4 km/h 81 % 0 in /  0.0 mm
09:57 67.1 °F /  19.5 °C 60.8 °F /  16.0 °C 30.1 in /  1019.5 hPa ENE 3 mph /  4.8 km/h 4 mph /  6.4 km/h 80 % 0 in /  0.0 mm
10:02 67.3 °F /  19.6 °C 60.6 °F /  15.9 °C 30.1 in /  1019.5 hPa NE 2 mph /  3.2 km/h 4 mph /  6.4 km/h 79 % 0 in /  0.0 mm
10:12 68.5 °F /  20.3 °C 61.3 °F /  16.3 °C 30.1 in /  1019.5 hPa ENE 1 mph /  1.6 km/h 5 mph /  8.0 km/h 78 % 0 in /  0.0 mm
10:17 68.5 °F /  20.3 °C 61 °F /  16.1 °C 30.1 in /  1019.5 hPa Calm   5 mph /  8.0 km/h 77 % 0 in /  0.0 mm
10:22 69.4 °F /  20.8 °C 61.2 °F /  16.2 °C 30.1 in /  1019.5 hPa East 4 mph /  6.4 km/h 7 mph /  11.3 km/h 75 % 0 in /  0.0 mm
10:27 69.8 °F /  21.0 °C 61.5 °F /  16.4 °C 30.1 in /  1019.2 hPa ESE 1 mph /  1.6 km/h 7 mph /  11.3 km/h 75 % 0 in /  0.0 mm
10:32 70.3 °F /  21.3 °C 61.7 °F /  16.5 °C 30.1 in /  1019.2 hPa ENE 1 mph /  1.6 km/h 7 mph /  11.3 km/h 74 % 0 in /  0.0 mm
10:37 70.5 °F /  21.4 °C 61.5 °F /  16.4 °C 30.1 in /  1019.5 hPa ESE 3 mph /  4.8 km/h 7 mph /  11.3 km/h 73 % 0 in /  0.0 mm
10:42 70.3 °F /  21.3 °C 61.7 °F /  16.5 °C 30.1 in /  1019.2 hPa ENE 3 mph /  4.8 km/h 7 mph /  11.3 km/h 74 % 0 in /  0.0 mm
10:47 70.9 °F /  21.6 °C 62.2 °F /  16.8 °C 30.1 in /  1019.2 hPa ENE 3 mph /  4.8 km/h 8 mph /  12.9 km/h 74 % 0 in /  0.0 mm
10:57 71.8 °F /  22.1 °C 62.2 °F /  16.8 °C 30.1 in /  1019.2 hPa NE 2 mph /  3.2 km/h 8 mph /  12.9 km/h 72 % 0 in /  0.0 mm
11:02 72 °F /  22.2 °C 62.1 °F /  16.7 °C 30.1 in /  1019.2 hPa East 3 mph /  4.8 km/h 6 mph /  9.7 km/h 71 % 0 in /  0.0 mm
11:12 72.1 °F /  22.3 °C 62.2 °F /  16.8 °C 30.1 in /  1019.2 hPa ESE 3 mph /  4.8 km/h 6 mph /  9.7 km/h 71 % 0 in /  0.0 mm
11:17 72.5 °F /  22.5 °C 62.6 °F /  17.0 °C 30.1 in /  1019.2 hPa ENE 5 mph /  8.0 km/h 6 mph /  9.7 km/h 71 % 0 in /  0.0 mm
11:22 72.5 °F /  22.5 °C 62.6 °F /  17.0 °C 30.1 in /  1019.2 hPa East 4 mph /  6.4 km/h 7 mph /  11.3 km/h 71 % 0 in /  0.0 mm
11:27 72.5 °F /  22.5 °C 62.2 °F /  16.8 °C 30.1 in /  1019.2 hPa East 2 mph /  3.2 km/h 8 mph /  12.9 km/h 70 % 0 in /  0.0 mm
11:32 72.9 °F /  22.7 °C 62.4 °F /  16.9 °C 30.1 in /  1019.2 hPa ENE 2 mph /  3.2 km/h 8 mph /  12.9 km/h 70 % 0 in /  0.0 mm
11:37 73 °F /  22.8 °C 62.2 °F /  16.8 °C 30.1 in /  1018.8 hPa ESE 2 mph /  3.2 km/h 8 mph /  12.9 km/h 69 % 0 in /  0.0 mm
11:42 73.6 °F /  23.1 °C 62.8 °F /  17.1 °C 30.1 in /  1018.8 hPa ENE 1 mph /  1.6 km/h 10 mph /  16.1 km/h 69 % 0 in /  0.0 mm
11:47 73.9 °F /  23.3 °C 62.8 °F /  17.1 °C 30.1 in /  1018.8 hPa East 7 mph /  11.3 km/h 10 mph /  16.1 km/h 68 % 0 in /  0.0 mm
11:52 74.1 °F /  23.4 °C 63.3 °F /  17.4 °C 30.1 in /  1018.8 hPa ENE 3 mph /  4.8 km/h 10 mph /  16.1 km/h 69 % 0 in /  0.0 mm
11:57 73.9 °F /  23.3 °C 62.2 °F /  16.8 °C 30.1 in /  1018.8 hPa ENE 5 mph /  8.0 km/h 8 mph /  12.9 km/h 67 % 0 in /  0.0 mm
12:02 74.1 °F /  23.4 °C 63.3 °F /  17.4 °C 30.1 in /  1018.8 hPa NE 7 mph /  11.3 km/h 8 mph /  12.9 km/h 69 % 0 in /  0.0 mm
12:12 75.4 °F /  24.1 °C 63.7 °F /  17.6 °C 30.1 in /  1018.8 hPa SE 3 mph /  4.8 km/h 10 mph /  16.1 km/h 67 % 0 in /  0.0 mm
12:17 75.7 °F /  24.3 °C 62.8 °F /  17.1 °C 30.1 in /  1018.8 hPa East 5 mph /  8.0 km/h 10 mph /  16.1 km/h 64 % 0 in /  0.0 mm
12:22 75.2 °F /  24.0 °C 62.6 °F /  17.0 °C 30.1 in /  1018.8 hPa ENE 5 mph /  8.0 km/h 10 mph /  16.1 km/h 65 % 0 in /  0.0 mm
12:27 75.7 °F /  24.3 °C 63.1 °F /  17.3 °C 30.1 in /  1018.5 hPa ESE 4 mph /  6.4 km/h 10 mph /  16.1 km/h 65 % 0 in /  0.0 mm
12:32 76.6 °F /  24.8 °C 63.1 °F /  17.3 °C 30.1 in /  1018.5 hPa SE 1 mph /  1.6 km/h 10 mph /  16.1 km/h 63 % 0 in /  0.0 mm
12:37 76.5 °F /  24.7 °C 62.4 °F /  16.9 °C 30.1 in /  1018.5 hPa ENE 2 mph /  3.2 km/h 10 mph /  16.1 km/h 62 % 0 in /  0.0 mm
12:42 77.2 °F /  25.1 °C 63.7 °F /  17.6 °C 30.1 in /  1018.5 hPa SSE 4 mph /  6.4 km/h 11 mph /  17.7 km/h 63 % 0 in /  0.0 mm
12:47 77.4 °F /  25.2 °C 62.4 °F /  16.9 °C 30.1 in /  1018.5 hPa SSE 2 mph /  3.2 km/h 11 mph /  17.7 km/h 60 % 0 in /  0.0 mm
12:52 77.7 °F /  25.4 °C 62.8 °F /  17.1 °C 30.1 in /  1018.5 hPa SE 2 mph /  3.2 km/h 9 mph /  14.5 km/h 60 % 0 in /  0.0 mm
12:57 78.4 °F /  25.8 °C 63 °F /  17.2 °C 30.1 in /  1018.5 hPa SSE 4 mph /  6.4 km/h 9 mph /  14.5 km/h 59 % 0 in /  0.0 mm
13:02 78.3 °F /  25.7 °C 61.7 °F /  16.5 °C 30.1 in /  1018.5 hPa ENE 4 mph /  6.4 km/h 8 mph /  12.9 km/h 57 % 0 in /  0.0 mm
13:07 78.3 °F /  25.7 °C 62.2 °F /  16.8 °C 30.1 in /  1018.2 hPa WSW 2 mph /  3.2 km/h 8 mph /  12.9 km/h 58 % 0 in /  0.0 mm
13:12 78.6 °F /  25.9 °C 62.1 °F /  16.7 °C 30.1 in /  1018.2 hPa ESE 5 mph /  8.0 km/h 9 mph /  14.5 km/h 57 % 0 in /  0.0 mm
13:17 79.2 °F /  26.2 °C 62.1 °F /  16.7 °C 30.1 in /  1018.2 hPa ESE 2 mph /  3.2 km/h 11 mph /  17.7 km/h 56 % 0 in /  0.0 mm
13:22 79 °F /  26.1 °C 61.9 °F /  16.6 °C 30.1 in /  1018.2 hPa SSE 2 mph /  3.2 km/h 11 mph /  17.7 km/h 56 % 0 in /  0.0 mm
13:32 79.3 °F /  26.3 °C 63.7 °F /  17.6 °C 30.1 in /  1017.8 hPa South 3 mph /  4.8 km/h 6 mph /  9.7 km/h 59 % 0 in /  0.0 mm
13:42 78.8 °F /  26.0 °C 62.2 °F /  16.8 °C 30.1 in /  1017.8 hPa SE 1 mph /  1.6 km/h 7 mph /  11.3 km/h 57 % 0 in /  0.0 mm
13:47 79.2 °F /  26.2 °C 62.6 °F /  17.0 °C 30.1 in /  1017.8 hPa ESE 3 mph /  4.8 km/h 6 mph /  9.7 km/h 57 % 0 in /  0.0 mm
13:52 79.2 °F /  26.2 °C 63.1 °F /  17.3 °C 30.1 in /  1017.8 hPa ENE 5 mph /  8.0 km/h 8 mph /  12.9 km/h 58 % 0 in /  0.0 mm
13:57 79.5 °F /  26.4 °C 62.4 °F /  16.9 °C 30.1 in /  1017.8 hPa SE 3 mph /  4.8 km/h 8 mph /  12.9 km/h 56 % 0 in /  0.0 mm
14:02 80.1 °F /  26.7 °C 63.5 °F /  17.5 °C 30.1 in /  1017.5 hPa ESE 4 mph /  6.4 km/h 7 mph /  11.3 km/h 57 % 0 in /  0.0 mm
14:07 80.4 °F /  26.9 °C 62.8 °F /  17.1 °C 30.1 in /  1017.5 hPa SW 1 mph /  1.6 km/h 7 mph /  11.3 km/h 55 % 0 in /  0.0 mm
14:12 80.4 °F /  26.9 °C 63.9 °F /  17.7 °C 30.1 in /  1017.5 hPa South 2 mph /  3.2 km/h 9 mph /  14.5 km/h 57 % 0 in /  0.0 mm
14:17 80.6 °F /  27.0 °C 64.4 °F /  18.0 °C 30.1 in /  1017.5 hPa SSW 2 mph /  3.2 km/h 9 mph /  14.5 km/h 58 % 0 in /  0.0 mm
14:22 80.4 °F /  26.9 °C 63.3 °F /  17.4 °C 30.1 in /  1017.5 hPa SSE 2 mph /  3.2 km/h 9 mph /  14.5 km/h 56 % 0 in /  0.0 mm
14:32 80.2 °F /  26.8 °C 62.1 °F /  16.7 °C 30.1 in /  1017.5 hPa SE 3 mph /  4.8 km/h 9 mph /  14.5 km/h 54 % 0 in /  0.0 mm
14:37 81 °F /  27.2 °C 61.7 °F /  16.5 °C 30.1 in /  1017.5 hPa South 4 mph /  6.4 km/h 9 mph /  14.5 km/h 52 % 0 in /  0.0 mm
14:42 80.6 °F /  27.0 °C 60.8 °F /  16.0 °C 30.1 in /  1017.5 hPa SW 3 mph /  4.8 km/h 7 mph /  11.3 km/h 51 % 0 in /  0.0 mm
14:52 81.7 °F /  27.6 °C 62.4 °F /  16.9 °C 30.1 in /  1017.5 hPa SE 4 mph /  6.4 km/h 8 mph /  12.9 km/h 52 % 0 in /  0.0 mm
14:57 81.9 °F /  27.7 °C 62.4 °F /  16.9 °C 30 in /  1017.2 hPa South 2 mph /  3.2 km/h 8 mph /  12.9 km/h 52 % 0 in /  0.0 mm
15:02 82 °F /  27.8 °C 62.1 °F /  16.7 °C 30 in /  1017.2 hPa East 5 mph /  8.0 km/h 8 mph /  12.9 km/h 51 % 0 in /  0.0 mm
15:07 81.9 °F /  27.7 °C 60.8 °F /  16.0 °C 30 in /  1017.2 hPa South 2 mph /  3.2 km/h 7 mph /  11.3 km/h 49 % 0 in /  0.0 mm
15:12 81.9 °F /  27.7 °C 61.3 °F /  16.3 °C 30 in /  1017.2 hPa East 2 mph /  3.2 km/h 7 mph /  11.3 km/h 50 % 0 in /  0.0 mm
15:17 82 °F /  27.8 °C 61.5 °F /  16.4 °C 30 in /  1017.2 hPa SSE 1 mph /  1.6 km/h 7 mph /  11.3 km/h 50 % 0 in /  0.0 mm
15:22 82.6 °F /  28.1 °C 62.1 °F /  16.7 °C 30 in /  1017.2 hPa Calm   7 mph /  11.3 km/h 50 % 0 in /  0.0 mm
15:32 83.3 °F /  28.5 °C 62.1 °F /  16.7 °C 30 in /  1016.8 hPa SE 1 mph /  1.6 km/h 5 mph /  8.0 km/h 49 % 0 in /  0.0 mm
15:37 83.3 °F /  28.5 °C 62.8 °F /  17.1 °C 30 in /  1016.8 hPa East 4 mph /  6.4 km/h 5 mph /  8.0 km/h 50 % 0 in /  0.0 mm
15:42 83.7 °F /  28.7 °C 62.4 °F /  16.9 °C 30 in /  1016.8 hPa South 2 mph /  3.2 km/h 5 mph /  8.0 km/h 49 % 0 in /  0.0 mm
15:47 83.5 °F /  28.6 °C 61.2 °F /  16.2 °C 30 in /  1016.8 hPa East 4 mph /  6.4 km/h 5 mph /  8.0 km/h 47 % 0 in /  0.0 mm
15:52 83.1 °F /  28.4 °C 62.1 °F /  16.7 °C 30 in /  1016.8 hPa SSE 2 mph /  3.2 km/h 7 mph /  11.3 km/h 49 % 0 in /  0.0 mm
15:57 83.3 °F /  28.5 °C 61.5 °F /  16.4 °C 30 in /  1016.5 hPa SSE 3 mph /  4.8 km/h 7 mph /  11.3 km/h 48 % 0 in /  0.0 mm
16:02 82.9 °F /  28.3 °C 61.2 °F /  16.2 °C 30 in /  1016.5 hPa SW 4 mph /  6.4 km/h 7 mph /  11.3 km/h 48 % 0 in /  0.0 mm
16:07 82.9 °F /  28.3 °C 61.9 °F /  16.6 °C 30 in /  1016.5 hPa SSE 3 mph /  4.8 km/h 7 mph /  11.3 km/h 49 % 0 in /  0.0 mm
16:12 83.1 °F /  28.4 °C 62.1 °F /  16.7 °C 30 in /  1016.5 hPa SSW 1 mph /  1.6 km/h 6 mph /  9.7 km/h 49 % 0 in /  0.0 mm
16:17 83.5 °F /  28.6 °C 61.2 °F /  16.2 °C 30 in /  1016.5 hPa SSW 3 mph /  4.8 km/h 7 mph /  11.3 km/h 47 % 0 in /  0.0 mm
16:22 83.5 °F /  28.6 °C 59.9 °F /  15.5 °C 30 in /  1016.5 hPa SW 5 mph /  8.0 km/h 7 mph /  11.3 km/h 45 % 0 in /  0.0 mm
16:32 82.8 °F /  28.2 °C 59.2 °F /  15.1 °C 30 in /  1016.5 hPa Calm   10 mph /  16.1 km/h 45 % 0 in /  0.0 mm
16:37 83.1 °F /  28.4 °C 59.5 °F /  15.3 °C 30 in /  1016.1 hPa WSW 3 mph /  4.8 km/h 10 mph /  16.1 km/h 45 % 0 in /  0.0 mm
16:42 83.7 °F /  28.7 °C 60.1 °F /  15.6 °C 30 in /  1016.5 hPa South 4 mph /  6.4 km/h 7 mph /  11.3 km/h 45 % 0 in /  0.0 mm
16:47 83.5 °F /  28.6 °C 59.4 °F /  15.2 °C 30 in /  1016.1 hPa West 1 mph /  1.6 km/h 9 mph /  14.5 km/h 44 % 0 in /  0.0 mm
16:52 83.7 °F /  28.7 °C 60.1 °F /  15.6 °C 30 in /  1016.1 hPa SW 4 mph /  6.4 km/h 9 mph /  14.5 km/h 45 % 0 in /  0.0 mm
16:57 83.5 °F /  28.6 °C 61.7 °F /  16.5 °C 30 in /  1016.1 hPa SW 4 mph /  6.4 km/h 9 mph /  14.5 km/h 48 % 0 in /  0.0 mm
17:02 83.8 °F /  28.8 °C 62.6 °F /  17.0 °C 30 in /  1016.1 hPa ESE 2 mph /  3.2 km/h 8 mph /  12.9 km/h 49 % 0 in /  0.0 mm
17:07 84.4 °F /  29.1 °C 60.1 °F /  15.6 °C 30 in /  1016.1 hPa East 1 mph /  1.6 km/h 10 mph /  16.1 km/h 44 % 0 in /  0.0 mm
17:12 84.9 °F /  29.4 °C 59.9 °F /  15.5 °C 30 in /  1016.1 hPa SE 1 mph /  1.6 km/h 10 mph /  16.1 km/h 43 % 0 in /  0.0 mm
17:22 83.1 °F /  28.4 °C 59 °F /  15.0 °C 30 in /  1016.1 hPa WSW 4 mph /  6.4 km/h 9 mph /  14.5 km/h 44 % 0 in /  0.0 mm
17:27 83.1 °F /  28.4 °C 59.5 °F /  15.3 °C 30 in /  1016.1 hPa West 2 mph /  3.2 km/h 9 mph /  14.5 km/h 45 % 0 in /  0.0 mm
17:32 83.7 °F /  28.7 °C 59.4 °F /  15.2 °C 30 in /  1016.1 hPa South 2 mph /  3.2 km/h 8 mph /  12.9 km/h 44 % 0 in /  0.0 mm
17:37 84 °F /  28.9 °C 59.2 °F /  15.1 °C 30 in /  1015.8 hPa WSW 4 mph /  6.4 km/h 6 mph /  9.7 km/h 43 % 0 in /  0.0 mm
17:42 84 °F /  28.9 °C 60.4 °F /  15.8 °C 30 in /  1016.1 hPa SW 4 mph /  6.4 km/h 6 mph /  9.7 km/h 45 % 0 in /  0.0 mm
17:47 84.2 °F /  29.0 °C 61.2 °F /  16.2 °C 30 in /  1016.1 hPa SSW 2 mph /  3.2 km/h 9 mph /  14.5 km/h 46 % 0 in /  0.0 mm
17:52 84.6 °F /  29.2 °C 59.5 °F /  15.3 °C 30 in /  1015.8 hPa Calm   9 mph /  14.5 km/h 43 % 0 in /  0.0 mm
18:17 85.3 °F /  29.6 °C 60.3 °F /  15.7 °C 30 in /  1015.8 hPa Calm   6 mph /  9.7 km/h 43 % 0 in /  0.0 mm
18:22 85.6 °F /  29.8 °C 61.9 °F /  16.6 °C 30 in /  1015.8 hPa South 1 mph /  1.6 km/h 6 mph /  9.7 km/h 45 % 0 in /  0.0 mm
18:27 85.8 °F /  29.9 °C 60.1 °F /  15.6 °C 30 in /  1015.8 hPa South 3 mph /  4.8 km/h 6 mph /  9.7 km/h 42 % 0 in /  0.0 mm
18:32 85.8 °F /  29.9 °C 60.8 °F /  16.0 °C 30 in /  1015.8 hPa SW 2 mph /  3.2 km/h 6 mph /  9.7 km/h 43 % 0 in /  0.0 mm
18:37 85.8 °F /  29.9 °C 60.8 °F /  16.0 °C 30 in /  1015.8 hPa Calm   6 mph /  9.7 km/h 43 % 0 in /  0.0 mm
18:42 85.5 °F /  29.7 °C 59.7 °F /  15.4 °C 30 in /  1015.8 hPa SW 1 mph /  1.6 km/h 6 mph /  9.7 km/h 42 % 0 in /  0.0 mm
18:52 84.9 °F /  29.4 °C 59.2 °F /  15.1 °C 30 in /  1015.5 hPa SW 2 mph /  3.2 km/h 5 mph /  8.0 km/h 42 % 0 in /  0.0 mm
18:57 85.3 °F /  29.6 °C 61 °F /  16.1 °C 30 in /  1015.5 hPa Calm   5 mph /  8.0 km/h 44 % 0 in /  0.0 mm
19:02 85.5 °F /  29.7 °C 61.7 °F /  16.5 °C 30 in /  1015.8 hPa WSW 4 mph /  6.4 km/h 5 mph /  8.0 km/h 45 % 0 in /  0.0 mm
19:12 84.9 °F /  29.4 °C 59.9 °F /  15.5 °C 30 in /  1015.5 hPa SW 2 mph /  3.2 km/h 5 mph /  8.0 km/h 43 % 0 in /  0.0 mm
19:17 84.6 °F /  29.2 °C 59.5 °F /  15.3 °C 30 in /  1015.5 hPa WSW 1 mph /  1.6 km/h 5 mph /  8.0 km/h 43 % 0 in /  0.0 mm
19:22 84.7 °F /  29.3 °C 61 °F /  16.1 °C 30 in /  1015.5 hPa Calm   5 mph /  8.0 km/h 45 % 0 in /  0.0 mm
19:27 84.9 °F /  29.4 °C 59.2 °F /  15.1 °C 30 in /  1015.5 hPa West 2 mph /  3.2 km/h 5 mph /  8.0 km/h 42 % 0 in /  0.0 mm
19:32 84.7 °F /  29.3 °C 59.2 °F /  15.1 °C 30 in /  1015.5 hPa WSW 3 mph /  4.8 km/h 3 mph /  4.8 km/h 42 % 0 in /  0.0 mm
19:42 84.6 °F /  29.2 °C 60.3 °F /  15.7 °C 30 in /  1015.5 hPa Calm   3 mph /  4.8 km/h 44 % 0 in /  0.0 mm
19:47 84.7 °F /  29.3 °C 59.2 °F /  15.1 °C 30 in /  1015.5 hPa Calm   3 mph /  4.8 km/h 42 % 0 in /  0.0 mm
19:52 84.9 °F /  29.4 °C 59.9 °F /  15.5 °C 30 in /  1015.5 hPa WNW 1 mph /  1.6 km/h 2 mph /  3.2 km/h 43 % 0 in /  0.0 mm
19:57 84.9 °F /  29.4 °C 59.2 °F /  15.1 °C 30 in /  1015.5 hPa Calm   2 mph /  3.2 km/h 42 % 0 in /  0.0 mm
20:02 84.7 °F /  29.3 °C 59.7 °F /  15.4 °C 30 in /  1015.5 hPa Calm   2 mph /  3.2 km/h 43 % 0 in /  0.0 mm
20:07 85.1 °F /  29.5 °C 58.8 °F /  14.9 °C 30 in /  1015.5 hPa Calm   2 mph /  3.2 km/h 41 % 0 in /  0.0 mm
20:12 84.7 °F /  29.3 °C 59.7 °F /  15.4 °C 30 in /  1015.5 hPa Calm   2 mph /  3.2 km/h 43 % 0 in /  0.0 mm
20:17 83.8 °F /  28.8 °C 59.5 °F /  15.3 °C 30 in /  1015.5 hPa Calm     44 % 0 in /  0.0 mm
20:22 83.1 °F /  28.4 °C 60.3 °F /  15.7 °C 30 in /  1015.5 hPa Calm     46 % 0 in /  0.0 mm
20:32 81.9 °F /  27.7 °C 60.3 °F /  15.7 °C 30 in /  1015.5 hPa Calm     48 % 0 in /  0.0 mm
20:37 81.1 °F /  27.3 °C 60.8 °F /  16.0 °C 30 in /  1015.8 hPa Calm     50 % 0 in /  0.0 mm
20:42 80.4 °F /  26.9 °C 61.2 °F /  16.2 °C 30 in /  1015.5 hPa Calm     52 % 0 in /  0.0 mm
20:47 79.2 °F /  26.2 °C 60.1 °F /  15.6 °C 30 in /  1015.8 hPa Calm     52 % 0 in /  0.0 mm
20:52 78.6 °F /  25.9 °C 59.5 °F /  15.3 °C 30 in /  1015.8 hPa Calm     52 % 0 in /  0.0 mm
20:57 78.3 °F /  25.7 °C 60.3 °F /  15.7 °C 30 in /  1015.8 hPa Calm     54 % 0 in /  0.0 mm
21:02 78.1 °F /  25.6 °C 60.1 °F /  15.6 °C 30 in /  1015.8 hPa Calm     54 % 0 in /  0.0 mm
21:12 77.2 °F /  25.1 °C 60.8 °F /  16.0 °C 30 in /  1015.8 hPa Calm     57 % 0 in /  0.0 mm
21:17 76.8 °F /  24.9 °C 61 °F /  16.1 °C 30 in /  1015.8 hPa Calm     58 % 0 in /  0.0 mm
21:22 75.9 °F /  24.4 °C 61 °F /  16.1 °C 30 in /  1015.8 hPa Calm     60 % 0 in /  0.0 mm
21:32 75.4 °F /  24.1 °C 61.5 °F /  16.4 °C 30 in /  1015.8 hPa Calm     62 % 0 in /  0.0 mm
21:37 74.8 °F /  23.8 °C 61.9 °F /  16.6 °C 30 in /  1016.1 hPa Calm     64 % 0 in /  0.0 mm
21:42 74.1 °F /  23.4 °C 61.5 °F /  16.4 °C 30 in /  1016.1 hPa Calm     65 % 0 in /  0.0 mm
21:52 73 °F /  22.8 °C 61.5 °F /  16.4 °C 30 in /  1016.1 hPa Calm     67 % 0 in /  0.0 mm
21:57 72.9 °F /  22.7 °C 61.3 °F /  16.3 °C 30 in /  1016.1 hPa Calm     67 % 0 in /  0.0 mm
22:02 72.3 °F /  22.4 °C 61.5 °F /  16.4 °C 30 in /  1016.1 hPa Calm     69 % 0 in /  0.0 mm
22:12 71.1 °F /  21.7 °C 61.2 °F /  16.2 °C 30 in /  1016.1 hPa Calm     71 % 0 in /  0.0 mm
22:17 70.9 °F /  21.6 °C 61 °F /  16.1 °C 30 in /  1016.1 hPa Calm     71 % 0 in /  0.0 mm
22:22 71.2 °F /  21.8 °C 61 °F /  16.1 °C 30 in /  1016.1 hPa Calm     70 % 0 in /  0.0 mm
22:27 71.4 °F /  21.9 °C 60.8 °F /  16.0 °C 30 in /  1016.1 hPa Calm     69 % 0 in /  0.0 mm
22:32 71.6 °F /  22.0 °C 60.8 °F /  16.0 °C 30 in /  1016.1 hPa Calm     69 % 0 in /  0.0 mm
22:37 71.2 °F /  21.8 °C 61 °F /  16.1 °C 30 in /  1016.1 hPa Calm     70 % 0 in /  0.0 mm
22:42 70.7 °F /  21.5 °C 60.8 °F /  16.0 °C 30 in /  1016.1 hPa Calm     71 % 0 in /  0.0 mm
22:52 70.2 °F /  21.2 °C 60.3 °F /  15.7 °C 30 in /  1016.1 hPa Calm     71 % 0 in /  0.0 mm
22:57 70 °F /  21.1 °C 60.1 °F /  15.6 °C 30 in /  1016.1 hPa Calm     71 % 0 in /  0.0 mm
23:02 70.2 °F /  21.2 °C 60.6 °F /  15.9 °C 30 in /  1016.1 hPa Calm     72 % 0 in /  0.0 mm
23:07 69.4 °F /  20.8 °C 60.4 °F /  15.8 °C 30 in /  1016.1 hPa Calm     73 % 0 in /  0.0 mm
23:12 69.6 °F /  20.9 °C 60.6 °F /  15.9 °C 30 in /  1016.1 hPa Calm     73 % 0 in /  0.0 mm
23:17 69.6 °F /  20.9 °C 60.6 °F /  15.9 °C 30 in /  1016.1 hPa Calm     73 % 0 in /  0.0 mm
23:22 69.3 °F /  20.7 °C 60.3 °F /  15.7 °C 30 in /  1016.1 hPa Calm     73 % 0 in /  0.0 mm
23:32 69.3 °F /  20.7 °C 60.3 °F /  15.7 °C 30 in /  1016.1 hPa Calm     73 % 0 in /  0.0 mm
23:37 69.3 °F /  20.7 °C 60.3 °F /  15.7 °C 30 in /  1015.8 hPa Calm     73 % 0 in /  0.0 mm
23:42 69.1 °F /  20.6 °C 60.4 °F /  15.8 °C 30 in /  1016.1 hPa Calm     74 % 0 in /  0.0 mm
23:47 68.5 °F /  20.3 °C 59.9 °F /  15.5 °C 30 in /  1016.1 hPa Calm     74 % 0 in /  0.0 mm
23:52 68.2 °F /  20.1 °C 59.9 °F /  15.5 °C 30 in /  1016.1 hPa Calm     75 % 0 in /  0.0 mm
23:57 68.2 °F /  20.1 °C 59.9 °F /  15.5 °C 30 in /  1015.8 hPa Calm     75 % 0 in /  0.0 mm
Meteo18
Compliments of Weather Underground - 4 mb

Script developed by  Jim McMurry - jmcmurry@mwt.net Adapted for the template by  Wim van der Kuil - Leuven-Template.eu

You find our weather info also at:

European Weather Network

Weather Underground

Equipment we use:

Weather-station
Davis Vue

Weather-program
Meteohub

Weather-server
Raspberry PI 2 B+

Provider
1 and 1

Davis Vue

Meteohub

Raspberry PI 2 B+

1 and 1